sensor_id;sensor_type;location;lat;lon;timestamp;pressure;altitude;pressure_sealevel;temperature;humidity
74913;BME280;63878;55.624;37.304;2023-05-10T00:08:48;100008.16;;;4.55;35.53
74913;BME280;63878;55.624;37.304;2023-05-10T00:18:49;100021.97;;;4.59;33.85
74913;BME280;63878;55.624;37.304;2023-05-10T00:28:49;100011.28;;;4.64;33.64
74913;BME280;63878;55.624;37.304;2023-05-10T00:38:50;100005.34;;;4.60;36.00
74913;BME280;63878;55.624;37.304;2023-05-10T00:48:51;100005.50;;;4.57;35.47
74913;BME280;63878;55.624;37.304;2023-05-10T00:58:52;100013.16;;;4.43;36.01
74913;BME280;63878;55.624;37.304;2023-05-10T01:08:52;100012.38;;;4.41;36.04
74913;BME280;63878;55.624;37.304;2023-05-10T01:18:53;99995.69;;;4.26;36.16
74913;BME280;63878;55.624;37.304;2023-05-10T01:29:24;100002.88;;;4.40;37.43
74913;BME280;63878;55.624;37.304;2023-05-10T01:39:44;100006.53;;;4.36;38.05
74913;BME280;63878;55.624;37.304;2023-05-10T01:49:50;100001.69;;;4.28;38.16
74913;BME280;63878;55.624;37.304;2023-05-10T01:59:52;99995.78;;;4.24;37.83
74913;BME280;63878;55.624;37.304;2023-05-10T02:09:54;99991.53;;;4.22;38.88
74913;BME280;63878;55.624;37.304;2023-05-10T02:19:56;99994.50;;;4.14;39.74
74913;BME280;63878;55.624;37.304;2023-05-10T02:29:59;99985.91;;;4.12;41.38
74913;BME280;63878;55.624;37.304;2023-05-10T02:40:00;99994.94;;;4.24;40.21
74913;BME280;63878;55.624;37.304;2023-05-10T02:50:01;99997.75;;;4.19;39.51
74913;BME280;63878;55.624;37.304;2023-05-10T03:00:02;99998.69;;;4.18;44.39
74913;BME280;63878;55.624;37.304;2023-05-10T03:10:04;99983.84;;;4.19;39.75
74913;BME280;63878;55.624;37.304;2023-05-10T03:20:12;99971.78;;;4.16;40.13
74913;BME280;63878;55.624;37.304;2023-05-10T03:30:17;99977.47;;;4.24;40.63
74913;BME280;63878;55.624;37.304;2023-05-10T03:40:18;99984.94;;;4.32;39.50
74913;BME280;63878;55.624;37.304;2023-05-10T03:50:19;99984.03;;;4.33;42.56
74913;BME280;63878;55.624;37.304;2023-05-10T04:00:20;99961.41;;;4.32;40.54
74913;BME280;63878;55.624;37.304;2023-05-10T04:10:21;99979.34;;;4.57;39.09
74913;BME280;63878;55.624;37.304;2023-05-10T04:20:21;99968.78;;;4.76;37.82
74913;BME280;63878;55.624;37.304;2023-05-10T04:30:22;99966.34;;;4.90;36.08
74913;BME280;63878;55.624;37.304;2023-05-10T04:40:22;99957.91;;;5.01;36.35
74913;BME280;63878;55.624;37.304;2023-05-10T04:50:23;99946.19;;;5.25;36.77
74913;BME280;63878;55.624;37.304;2023-05-10T05:00:23;99955.31;;;5.50;37.38
74913;BME280;63878;55.624;37.304;2023-05-10T05:10:24;99936.41;;;5.76;35.28
74913;BME280;63878;55.624;37.304;2023-05-10T05:20:24;99957.59;;;6.19;35.09
74913;BME280;63878;55.624;37.304;2023-05-10T05:30:25;99937.78;;;6.73;32.58
74913;BME280;63878;55.624;37.304;2023-05-10T05:40:25;99929.84;;;7.04;32.40
74913;BME280;63878;55.624;37.304;2023-05-10T05:50:26;99922.16;;;7.29;30.56
74913;BME280;63878;55.624;37.304;2023-05-10T06:00:27;99902.94;;;7.70;30.44
74913;BME280;63878;55.624;37.304;2023-05-10T06:10:27;99911.97;;;7.93;26.55
74913;BME280;63878;55.624;37.304;2023-05-10T06:20:28;99907.22;;;8.52;27.33
74913;BME280;63878;55.624;37.304;2023-05-10T06:30:28;99888.66;;;8.28;26.63
74913;BME280;63878;55.624;37.304;2023-05-10T06:40:29;99907.00;;;8.80;27.12
74913;BME280;63878;55.624;37.304;2023-05-10T06:50:30;99897.09;;;8.84;25.19
74913;BME280;63878;55.624;37.304;2023-05-10T07:00:30;99897.44;;;8.92;25.35
74913;BME280;63878;55.624;37.304;2023-05-10T07:10:31;99901.38;;;9.23;23.70
74913;BME280;63878;55.624;37.304;2023-05-10T07:20:31;99892.81;;;9.45;25.96
74913;BME280;63878;55.624;37.304;2023-05-10T07:30:32;99880.78;;;9.41;23.82
74913;BME280;63878;55.624;37.304;2023-05-10T07:40:32;99869.84;;;11.21;32.57
74913;BME280;63878;55.624;37.304;2023-05-10T07:50:33;99853.28;;;12.06;34.14
74913;BME280;63878;55.624;37.304;2023-05-10T08:00:33;99851.78;;;11.92;25.58
74913;BME280;63878;55.624;37.304;2023-05-10T08:10:34;99839.59;;;12.01;22.08
74913;BME280;63878;55.624;37.304;2023-05-10T08:20:34;99837.75;;;12.85;33.60
74913;BME280;63878;55.624;37.304;2023-05-10T08:30:35;99827.06;;;12.96;23.42
74913;BME280;63878;55.624;37.304;2023-05-10T08:40:37;99814.09;;;12.41;22.30
74913;BME280;63878;55.624;37.304;2023-05-10T08:50:41;99812.28;;;12.42;21.91
74913;BME280;63878;55.624;37.304;2023-05-10T09:00:43;99815.22;;;10.66;22.43
74913;BME280;63878;55.624;37.304;2023-05-10T09:10:44;99790.78;;;11.29;28.49
74913;BME280;63878;55.624;37.304;2023-05-10T09:20:45;99783.41;;;10.90;22.51
74913;BME280;63878;55.624;37.304;2023-05-10T09:30:53;99779.22;;;10.76;21.91
74913;BME280;63878;55.624;37.304;2023-05-10T09:40:53;99771.28;;;10.76;21.87
74913;BME280;63878;55.624;37.304;2023-05-10T09:50:57;99764.63;;;11.58;25.17
74913;BME280;63878;55.624;37.304;2023-05-10T10:00:58;99759.06;;;11.18;22.32
74913;BME280;63878;55.624;37.304;2023-05-10T10:11:00;99750.19;;;11.83;23.77
74913;BME280;63878;55.624;37.304;2023-05-10T10:21:01;99735.84;;;12.28;22.61
74913;BME280;63878;55.624;37.304;2023-05-10T10:31:15;99723.00;;;12.54;20.77
74913;BME280;63878;55.624;37.304;2023-05-10T10:41:35;99716.59;;;12.87;25.52
74913;BME280;63878;55.624;37.304;2023-05-10T10:51:39;99705.69;;;12.90;20.72
74913;BME280;63878;55.624;37.304;2023-05-10T11:01:41;99707.47;;;12.09;23.55
74913;BME280;63878;55.624;37.304;2023-05-10T11:11:50;99703.22;;;11.76;21.44
74913;BME280;63878;55.624;37.304;2023-05-10T11:22:12;99695.47;;;12.05;20.70
74913;BME280;63878;55.624;37.304;2023-05-10T11:32:13;99674.91;;;11.46;21.99
74913;BME280;63878;55.624;37.304;2023-05-10T11:42:14;99679.91;;;12.52;29.13
74913;BME280;63878;55.624;37.304;2023-05-10T11:52:14;99661.28;;;12.23;23.21
74913;BME280;63878;55.624;37.304;2023-05-10T12:02:15;99662.34;;;13.10;32.54
74913;BME280;63878;55.624;37.304;2023-05-10T12:12:16;99655.63;;;13.45;33.68
74913;BME280;63878;55.624;37.304;2023-05-10T12:22:20;99637.31;;;12.24;22.65
74913;BME280;63878;55.624;37.304;2023-05-10T12:32:21;99648.78;;;12.34;22.25
74913;BME280;63878;55.624;37.304;2023-05-10T12:42:22;99635.25;;;12.78;26.83
74913;BME280;63878;55.624;37.304;2023-05-10T12:52:23;99607.13;;;12.36;21.90
74913;BME280;63878;55.624;37.304;2023-05-10T13:02:23;99634.97;;;12.31;22.15
74913;BME280;63878;55.624;37.304;2023-05-10T13:12:24;99627.22;;;12.39;26.62
74913;BME280;63878;55.624;37.304;2023-05-10T13:22:24;99620.94;;;12.40;22.15
74913;BME280;63878;55.624;37.304;2023-05-10T13:32:25;99621.13;;;12.08;22.79
74913;BME280;63878;55.624;37.304;2023-05-10T13:42:26;99612.81;;;12.22;22.31
74913;BME280;63878;55.624;37.304;2023-05-10T13:52:27;99598.88;;;12.20;21.93
74913;BME280;63878;55.624;37.304;2023-05-10T14:02:27;99583.47;;;11.95;23.07
74913;BME280;63878;55.624;37.304;2023-05-10T14:12:28;99604.56;;;12.15;25.71
74913;BME280;63878;55.624;37.304;2023-05-10T14:22:29;99594.66;;;12.17;22.31
74913;BME280;63878;55.624;37.304;2023-05-10T14:32:30;99594.44;;;11.90;22.70
74913;BME280;63878;55.624;37.304;2023-05-10T14:42:31;99590.63;;;11.73;22.92
74913;BME280;63878;55.624;37.304;2023-05-10T14:52:31;99585.41;;;11.93;22.89
74913;BME280;63878;55.624;37.304;2023-05-10T15:02:32;99573.78;;;11.74;22.85
74913;BME280;63878;55.624;37.304;2023-05-10T15:12:32;99576.97;;;11.78;23.11
74913;BME280;63878;55.624;37.304;2023-05-10T15:22:33;99563.63;;;11.79;23.29
74913;BME280;63878;55.624;37.304;2023-05-10T15:32:33;99576.31;;;11.65;23.43
74913;BME280;63878;55.624;37.304;2023-05-10T15:42:34;99571.84;;;11.55;25.38
74913;BME280;63878;55.624;37.304;2023-05-10T15:52:35;99569.63;;;11.60;23.71
74913;BME280;63878;55.624;37.304;2023-05-10T16:02:35;99554.44;;;11.53;27.11
74913;BME280;63878;55.624;37.304;2023-05-10T16:12:36;99563.88;;;11.46;23.98
74913;BME280;63878;55.624;37.304;2023-05-10T16:22:37;99569.22;;;11.34;24.97
74913;BME280;63878;55.624;37.304;2023-05-10T16:32:38;99567.09;;;11.28;25.11
74913;BME280;63878;55.624;37.304;2023-05-10T16:42:38;99553.59;;;11.11;25.83
74913;BME280;63878;55.624;37.304;2023-05-10T16:52:39;99571.84;;;11.34;26.62
74913;BME280;63878;55.624;37.304;2023-05-10T17:02:40;99573.47;;;11.26;26.59
74913;BME280;63878;55.624;37.304;2023-05-10T17:12:42;99581.31;;;11.16;26.94
74913;BME280;63878;55.624;37.304;2023-05-10T17:22:42;99576.69;;;11.08;26.78
74913;BME280;63878;55.624;37.304;2023-05-10T17:32:43;99582.75;;;10.99;26.28
74913;BME280;63878;55.624;37.304;2023-05-10T17:42:44;99594.78;;;10.92;29.65
74913;BME280;63878;55.624;37.304;2023-05-10T17:52:45;99592.47;;;10.99;28.15
74913;BME280;63878;55.624;37.304;2023-05-10T18:02:46;99596.63;;;10.80;29.69
74913;BME280;63878;55.624;37.304;2023-05-10T18:12:46;99603.72;;;10.80;28.15
74913;BME280;63878;55.624;37.304;2023-05-10T18:22:47;99601.72;;;10.72;28.16
74913;BME280;63878;55.624;37.304;2023-05-10T18:32:47;99599.78;;;10.63;29.21
74913;BME280;63878;55.624;37.304;2023-05-10T18:42:48;99605.81;;;10.65;30.66
74913;BME280;63878;55.624;37.304;2023-05-10T18:52:48;99601.09;;;10.58;30.26
74913;BME280;63878;55.624;37.304;2023-05-10T19:02:49;99615.03;;;10.60;31.51
74913;BME280;63878;55.624;37.304;2023-05-10T19:12:51;99615.41;;;10.44;30.24
74913;BME280;63878;55.624;37.304;2023-05-10T19:22:51;99609.06;;;10.35;32.72
74913;BME280;63878;55.624;37.304;2023-05-10T19:32:52;99613.50;;;10.35;30.78
74913;BME280;63878;55.624;37.304;2023-05-10T19:42:52;99603.94;;;10.34;30.24
74913;BME280;63878;55.624;37.304;2023-05-10T19:52:53;99561.50;;;10.03;30.99
74913;BME280;63878;55.624;37.304;2023-05-10T20:02:54;99604.06;;;10.10;33.83
74913;BME280;63878;55.624;37.304;2023-05-10T20:12:54;99592.22;;;9.93;33.35
74913;BME280;63878;55.624;37.304;2023-05-10T20:22:55;99587.16;;;9.90;32.21
74913;BME280;63878;55.624;37.304;2023-05-10T20:32:55;99594.72;;;9.72;32.10
74913;BME280;63878;55.624;37.304;2023-05-10T20:42:56;99601.09;;;9.92;30.31
74913;BME280;63878;55.624;37.304;2023-05-10T20:52:58;99602.28;;;9.99;31.12
74913;BME280;63878;55.624;37.304;2023-05-10T21:02:58;99596.28;;;9.86;31.70
74913;BME280;63878;55.624;37.304;2023-05-10T21:12:59;99597.72;;;9.67;32.49
74913;BME280;63878;55.624;37.304;2023-05-10T21:22:59;99588.31;;;9.41;32.10
74913;BME280;63878;55.624;37.304;2023-05-10T21:33:00;99587.75;;;9.49;31.41
74913;BME280;63878;55.624;37.304;2023-05-10T21:43:01;99581.00;;;9.44;33.09
74913;BME280;63878;55.624;37.304;2023-05-10T21:53:02;99594.63;;;9.27;32.60
74913;BME280;63878;55.624;37.304;2023-05-10T22:03:03;99595.47;;;9.28;32.44
74913;BME280;63878;55.624;37.304;2023-05-10T22:13:03;99591.09;;;9.15;33.95
74913;BME280;63878;55.624;37.304;2023-05-10T22:23:04;99587.38;;;9.07;35.29
74913;BME280;63878;55.624;37.304;2023-05-10T22:33:04;99596.25;;;8.82;38.63
74913;BME280;63878;55.624;37.304;2023-05-10T22:43:05;99598.56;;;8.62;40.54
74913;BME280;63878;55.624;37.304;2023-05-10T22:53:05;99583.28;;;8.68;34.38
74913;BME280;63878;55.624;37.304;2023-05-10T23:03:06;99604.78;;;8.61;40.36
74913;BME280;63878;55.624;37.304;2023-05-10T23:13:07;99605.72;;;8.60;38.22
74913;BME280;63878;55.624;37.304;2023-05-10T23:23:08;99616.31;;;8.72;39.21
74913;BME280;63878;55.624;37.304;2023-05-10T23:33:08;99613.78;;;8.46;43.90
74913;BME280;63878;55.624;37.304;2023-05-10T23:43:09;99609.94;;;8.14;42.55
74913;BME280;63878;55.624;37.304;2023-05-10T23:53:10;99615.09;;;8.28;41.06
